MMPR

Details ICAO MMPR (PVR)
Name LICENCIADO GUSTAVO DIAZ ORDAZ INTL
Region Mexico
Timezone America/Mexico_City (UTC-6.0)
Plans Departing 117
Arriving 169
Stats Elevation 23 ft / 7 m (AMSL)
Location 20.680069° -105.254153°
Runways 1
Magnetic Variation 6.890° E
Sunrise 2017-12-13 13:30:03 UTC / 2017-12-13 07:30:03 Local
Sunset 2017-12-14 00:23:29 UTC / 2017-12-13 18:23:29 Local
Advertisement - Login to hide

Runways

ID Width Length Bearing (true) Bearing (mag) Surface Threshold Offset Overrun Length
04 148 ft / 45 m 10,221 ft / 3,116 m 47.05° 40.16° Asphalt 0 ft / 0 m 185 ft / 56 m
22 148 ft / 45 m 10,221 ft / 3,116 m 227.06° 220.17° Asphalt 0 ft / 0 m 185 ft / 56 m

Map

Weather


0- 5 10 15 20 25 30 35+ Temperature / ° C

Clouds and Precipitation
Forecast for 2017-12-13 18:00 UTC. Updated 2 hours ago

Ground ~20,000 ft ~40,000 ft Winds

METAR

MMPR 131449Z 04005KT 15SM SCT250 19/14 A3003 RMK SLP166 52023 906 8/002 DSNT AS 3-4 QUAD

TAF

Not found

Frequencies

Recorded 127.50 MHz VALLARTA ATIS
Approach 121.30 MHz VALLARTA APP
Tower 118.50 MHz VALLARTA TWR
Approach 119.00 MHz VALLARTA APP
Warning: Do not use this data for real-world aviation or navigation. No guarantee of current accuracy is given.